Terminal Aerodrome Forecast
Issued by NWS

Home | Current Version | Previous Version | Text Only | Print | Product List | Glossary On
Versions: 1 2 3 4 5 6 7 8 9 10 11 12 13 14 15 16 17 18 19 20
000
FTUS42 KJAX 272326
TAFCRG
TAF
KCRG 272326Z 2800/2824 13010G15KT P6SM VCSH BKN015 OVC025
     FM280600 14009KT P6SM VCSH BKN010 OVC020
     FM281400 15012G20KT P6SM VCSH SCT015 BKN025
     FM281900 15014G20KT P6SM VCTS SCT020CB BKN035=

USA.gov is the U.S. government's official web portal to all federal, state and local government web resources and services.